createdAt,value
2023-03-06T00:00:37.091Z,96856.19
2023-03-06T00:03:05.804Z,96853.69
2023-03-06T00:05:34.101Z,96845.25
2023-03-06T00:08:02.449Z,96850.75
2023-03-06T00:10:33.219Z,96852.00
2023-03-06T00:13:05.136Z,96849.75
2023-03-06T00:15:34.906Z,96851.94
2023-03-06T00:18:06.477Z,96850.41
2023-03-06T00:20:35.963Z,96842.81
2023-03-06T00:23:04.236Z,96838.34
2023-03-06T00:25:32.563Z,96843.75
2023-03-06T00:28:00.750Z,96851.63
2023-03-06T00:30:29.160Z,96846.38
2023-03-06T00:32:58.897Z,96842.81
2023-03-06T00:35:27.187Z,96831.31
2023-03-06T00:37:55.473Z,96829.53
2023-03-06T00:40:23.900Z,96821.78
2023-03-06T00:42:52.133Z,96824.41
2023-03-06T00:45:20.557Z,96818.31
2023-03-06T00:47:48.833Z,96820.81
2023-03-06T00:50:19.808Z,96819.97
2023-03-06T00:52:48.094Z,96800.19
2023-03-06T00:55:16.534Z,96795.38
2023-03-06T00:57:44.804Z,96794.53
2023-03-06T01:00:15.112Z,96798.94
2023-03-06T01:02:43.443Z,96798.94
2023-03-06T01:05:14.713Z,96790.94
2023-03-06T01:07:44.369Z,96784.16
2023-03-06T01:10:13.491Z,96793.81
2023-03-06T01:12:41.707Z,96793.81
2023-03-06T01:15:12.364Z,96776.41
2023-03-06T01:17:40.661Z,96778.19
2023-03-06T01:20:12.089Z,96782.66
2023-03-06T01:22:40.292Z,96770.44
2023-03-06T01:25:11.202Z,96766.19
2023-03-06T01:27:39.434Z,96764.53
2023-03-06T01:30:09.847Z,96771.56
2023-03-06T01:32:38.103Z,96761.19
2023-03-06T01:35:07.399Z,96759.41
2023-03-06T01:37:37.150Z,96751.38
2023-03-06T01:40:07.315Z,96746.94
2023-03-06T01:42:37.026Z,96750.41
2023-03-06T01:45:09.560Z,96743.50
2023-03-06T01:47:37.961Z,96726.78
2023-03-06T01:50:08.485Z,96735.50
2023-03-06T01:52:41.006Z,96725.78
2023-03-06T01:55:12.751Z,96724.84
2023-03-06T01:57:46.008Z,96716.00
2023-03-06T02:00:18.098Z,96715.00
2023-03-06T02:02:52.707Z,96724.56
2023-03-06T02:05:21.111Z,96713.22
2023-03-06T02:07:51.492Z,96716.56
2023-03-06T02:10:21.879Z,96714.75
2023-03-06T02:12:53.465Z,96706.72
2023-03-06T02:15:25.749Z,96706.59
2023-03-06T02:17:54.603Z,96707.44
2023-03-06T02:20:31.041Z,96696.91
2023-03-06T02:23:06.619Z,96694.28
2023-03-06T02:25:40.243Z,96695.78
2023-03-06T02:28:12.352Z,96683.50
2023-03-06T02:30:42.119Z,96682.53
2023-03-06T02:33:14.578Z,96684.47
2023-03-06T02:35:48.621Z,96678.09
2023-03-06T02:38:19.978Z,96667.59
2023-03-06T02:40:52.632Z,96663.47
2023-03-06T02:43:26.898Z,96660.41
2023-03-06T02:45:55.660Z,96660.41
2023-03-06T02:48:23.927Z,96664.00
2023-03-06T02:50:52.207Z,96662.91
2023-03-06T02:53:22.202Z,96650.72
2023-03-06T02:55:52.306Z,96656.94
2023-03-06T02:58:20.702Z,96650.84
2023-03-06T03:00:50.128Z,96645.59
2023-03-06T03:03:18.975Z,96643.81
2023-03-06T03:05:47.251Z,96646.56
2023-03-06T03:08:15.529Z,96646.56
2023-03-06T03:10:43.799Z,96644.94
2023-03-06T03:13:13.431Z,96642.28
2023-03-06T03:15:41.779Z,96645.72
2023-03-06T03:18:11.919Z,96637.19
2023-03-06T03:20:44.172Z,96641.47
2023-03-06T03:23:12.402Z,96642.28
2023-03-06T03:25:40.619Z,96639.94
2023-03-06T03:28:08.872Z,96638.13
2023-03-06T03:30:40.023Z,96630.38
2023-03-06T03:33:08.700Z,96631.38
2023-03-06T03:35:37.454Z,96632.47
2023-03-06T03:38:05.839Z,96629.00
2023-03-06T03:40:34.165Z,96623.91
2023-03-06T03:43:02.417Z,96615.47
2023-03-06T03:45:30.639Z,96612.31
2023-03-06T03:48:00.248Z,96613.38
2023-03-06T03:50:28.569Z,96613.53
2023-03-06T03:52:56.807Z,96610.22
2023-03-06T03:55:25.011Z,96605.09
2023-03-06T03:57:53.326Z,96608.72
2023-03-06T04:00:22.199Z,96616.59
2023-03-06T04:02:50.576Z,96607.88
2023-03-06T04:05:20.470Z,96598.22
2023-03-06T04:07:48.801Z,96602.50
2023-03-06T04:10:17.287Z,96599.84
2023-03-06T04:12:45.554Z,96587.97
2023-03-06T04:15:13.834Z,96582.31
2023-03-06T04:17:42.063Z,96587.41
2023-03-06T04:20:12.309Z,96582.16
2023-03-06T04:22:41.937Z,96574.44
2023-03-06T04:25:11.031Z,96575.94
2023-03-06T04:27:39.277Z,96577.72
2023-03-06T04:30:09.889Z,96576.06
2023-03-06T04:32:38.146Z,96579.50
2023-03-06T04:35:07.363Z,96579.50
2023-03-06T04:37:35.697Z,96580.50
2023-03-06T04:40:06.127Z,96580.50
2023-03-06T04:42:34.594Z,96578.72
2023-03-06T04:45:02.889Z,96578.00
2023-03-06T04:47:31.289Z,96581.47
2023-03-06T04:49:59.501Z,96577.88
2023-03-06T04:52:27.716Z,96579.69
2023-03-06T04:54:55.994Z,96576.22
2023-03-06T04:57:25.704Z,96573.59
2023-03-06T04:59:53.998Z,96572.88
2023-03-06T05:02:24.255Z,96571.25
2023-03-06T05:04:52.538Z,96571.38
2023-03-06T05:07:20.818Z,96564.63
2023-03-06T05:09:49.063Z,96554.25
2023-03-06T05:12:17.349Z,96553.69
2023-03-06T05:14:48.079Z,96553.41
2023-03-06T05:17:16.476Z,96554.41
2023-03-06T05:19:44.756Z,96552.56
2023-03-06T05:22:13.011Z,96544.84
2023-03-06T05:24:41.730Z,96547.47
2023-03-06T05:27:09.996Z,96550.09
2023-03-06T05:29:38.250Z,96548.44
2023-03-06T05:32:08.879Z,96550.22
2023-03-06T05:34:37.285Z,96549.41
2023-03-06T05:37:05.726Z,96544.16
2023-03-06T05:39:34.038Z,96550.22
2023-03-06T05:42:02.376Z,96550.38
2023-03-06T05:44:33.363Z,96546.09
2023-03-06T05:47:01.911Z,96548.72
2023-03-06T05:49:35.865Z,96553.97
2023-03-06T05:52:06.041Z,96548.72
2023-03-06T05:54:36.369Z,96549.41
2023-03-06T05:57:05.447Z,96547.75
2023-03-06T05:59:34.332Z,96553.00
2023-03-06T06:02:05.514Z,96553.28
2023-03-06T06:04:35.256Z,96551.50
2023-03-06T06:07:03.515Z,96550.66
2023-03-06T06:09:31.956Z,96548.72
2023-03-06T06:12:03.629Z,96547.88
2023-03-06T06:14:35.664Z,96552.19
2023-03-06T06:17:04.002Z,96559.94
2023-03-06T06:19:34.252Z,96552.03
2023-03-06T06:22:03.835Z,96548.72
2023-03-06T06:24:33.166Z,96549.28
2023-03-06T06:27:03.939Z,96549.28
2023-03-06T06:29:33.135Z,96547.47
2023-03-06T06:32:01.777Z,96552.72
2023-03-06T06:34:31.761Z,96555.34
2023-03-06T06:37:01.409Z,96552.72
2023-03-06T06:39:30.452Z,96552.84
2023-03-06T06:42:15.458Z,96546.78
2023-03-06T06:44:46.987Z,96550.22
2023-03-06T06:47:22.766Z,96550.38
2023-03-06T06:49:52.989Z,96553.84
2023-03-06T06:52:23.380Z,96556.47
2023-03-06T06:54:51.596Z,96551.06
2023-03-06T06:57:20.100Z,96553.56
2023-03-06T06:59:48.349Z,96556.03
2023-03-06T07:02:17.558Z,96558.41
2023-03-06T07:05:02.429Z,96552.16
2023-03-06T07:07:34.774Z,96553.13
2023-03-06T07:10:03.650Z,96553.97
2023-03-06T07:12:32.898Z,96551.34
2023-03-06T07:15:01.255Z,96558.13
2023-03-06T07:17:29.689Z,96559.75
2023-03-06T07:19:58.052Z,96556.19
2023-03-06T07:22:26.427Z,96559.47
2023-03-06T07:24:56.180Z,96560.47
2023-03-06T07:27:26.149Z,96560.31
2023-03-06T07:29:54.457Z,96563.09
2023-03-06T07:32:22.807Z,96559.75
2023-03-06T07:34:51.255Z,96560.88
2023-03-06T07:37:19.615Z,96561.03
2023-03-06T07:39:47.898Z,96558.41
2023-03-06T07:42:17.577Z,96567.78
2023-03-06T07:44:45.818Z,96558.81
2023-03-06T07:47:14.766Z,96566.38
2023-03-06T07:49:43.030Z,96569.72
2023-03-06T07:52:12.817Z,96572.91
2023-03-06T07:54:41.045Z,96570.94
2023-03-06T07:57:09.302Z,96565.53
2023-03-06T07:59:38.917Z,96561.81
2023-03-06T08:02:07.244Z,96563.63
2023-03-06T08:04:36.064Z,96568.03
2023-03-06T08:07:04.378Z,96564.72
2023-03-06T08:09:32.678Z,96564.03
2023-03-06T08:12:00.997Z,96565.69
2023-03-06T08:14:29.322Z,96571.91
2023-03-06T08:16:59.011Z,96571.91
2023-03-06T08:19:27.258Z,96571.63
2023-03-06T08:21:55.487Z,96577.59
2023-03-06T08:24:23.765Z,96569.44
2023-03-06T08:26:52.058Z,96576.75
2023-03-06T08:29:20.285Z,96573.00
2023-03-06T08:31:48.815Z,96580.34
2023-03-06T08:34:21.554Z,96576.31
2023-03-06T08:36:50.132Z,96581.00
2023-03-06T08:39:18.528Z,96574.34
2023-03-06T08:41:46.808Z,96568.53
2023-03-06T08:44:15.099Z,96576.69
2023-03-06T08:46:43.388Z,96577.91
2023-03-06T08:49:14.583Z,96582.72
2023-03-06T08:51:44.238Z,96581.47
2023-03-06T08:54:14.103Z,96585.34
2023-03-06T08:56:42.436Z,96583.91
2023-03-06T08:59:15.953Z,96588.59
2023-03-06T09:01:45.167Z,96591.78
2023-03-06T09:04:13.429Z,96591.50
2023-03-06T09:06:45.451Z,96592.84
2023-03-06T09:09:14.316Z,96594.34
2023-03-06T09:11:42.593Z,96591.44
2023-03-06T09:14:10.881Z,96587.84
2023-03-06T09:16:39.264Z,96589.06
2023-03-06T09:19:07.821Z,96587.78
2023-03-06T09:21:36.124Z,96589.31
2023-03-06T09:24:06.193Z,96588.19
2023-03-06T09:26:46.625Z,96594.13
2023-03-06T09:29:17.577Z,96592.84
2023-03-06T09:31:46.124Z,96595.34
2023-03-06T09:34:14.698Z,96581.75
2023-03-06T09:36:55.841Z,96580.47
2023-03-06T09:39:27.613Z,96570.91
2023-03-06T09:41:58.203Z,96584.00
2023-03-06T09:44:28.880Z,96579.56
2023-03-06T09:47:34.559Z,96581.75
2023-03-06T09:50:16.671Z,96583.25
2023-03-06T09:52:56.976Z,96586.44
2023-03-06T09:55:29.338Z,96579.88
2023-03-06T09:58:07.104Z,96579.59
2023-03-06T10:00:41.875Z,96573.88
2023-03-06T10:03:21.103Z,96578.19
2023-03-06T10:05:54.677Z,96574.25
2023-03-06T10:08:30.340Z,96573.13
2023-03-06T10:11:06.669Z,96568.38
2023-03-06T10:13:42.415Z,96560.03
2023-03-06T10:16:27.773Z,96561.38
2023-03-06T10:18:59.754Z,96561.91
2023-03-06T10:21:40.428Z,96561.59
2023-03-06T10:24:23.668Z,96558.81
2023-03-06T10:27:00.231Z,96556.53
2023-03-06T10:29:39.311Z,96558.72
2023-03-06T10:32:17.857Z,96556.47
2023-03-06T10:34:47.014Z,96551.75
2023-03-06T10:37:21.570Z,96554.25
2023-03-06T10:39:56.167Z,96555.72
2023-03-06T10:42:28.615Z,96548.50
2023-03-06T10:45:12.115Z,96553.31
2023-03-06T10:47:40.800Z,96547.91
2023-03-06T10:50:25.828Z,96543.75
2023-03-06T10:53:04.464Z,96547.91
2023-03-06T10:55:35.513Z,96547.75
2023-03-06T10:58:24.289Z,96541.47
2023-03-06T11:01:06.823Z,96552.03
2023-03-06T11:03:36.485Z,96547.75
2023-03-06T11:06:12.647Z,96545.75
2023-03-06T11:08:43.512Z,96541.31
2023-03-06T11:11:18.514Z,96543.13
2023-03-06T11:14:00.020Z,96544.66
2023-03-06T11:16:30.557Z,96541.00
2023-03-06T11:19:03.893Z,96541.16
2023-03-06T11:21:34.437Z,96538.53
2023-03-06T11:24:07.578Z,96540.19
2023-03-06T11:26:43.946Z,96536.72
2023-03-06T11:29:38.711Z,96539.53
2023-03-06T11:32:13.624Z,96536.72
2023-03-06T11:34:50.516Z,96530.31
2023-03-06T11:37:27.405Z,96525.84
2023-03-06T11:40:06.473Z,96531.66
2023-03-06T11:42:40.861Z,96527.06
2023-03-06T11:45:28.268Z,96520.63
2023-03-06T11:48:05.179Z,96515.88
2023-03-06T11:50:38.320Z,96511.28
2023-03-06T11:53:10.675Z,96505.03
2023-03-06T11:55:47.672Z,96502.88
2023-03-06T11:58:58.065Z,96500.09
2023-03-06T12:01:34.163Z,96498.75
2023-03-06T12:04:27.221Z,96494.47
2023-03-06T12:07:07.556Z,96501.78
2023-03-06T12:09:47.358Z,96498.97
2023-03-06T12:12:34.082Z,96491.72
2023-03-06T12:15:25.074Z,96498.28
2023-03-06T12:18:12.842Z,96496.34
2023-03-06T12:20:58.836Z,96496.19
2023-03-06T12:23:51.282Z,96489.22
2023-03-06T12:26:55.992Z,96481.16
2023-03-06T12:29:41.212Z,96486.44
2023-03-06T12:32:21.903Z,96479.34
2023-03-06T12:35:16.615Z,96474.75
2023-03-06T12:38:00.218Z,96479.88
2023-03-06T12:41:09.262Z,96469.97
2023-03-06T12:44:15.506Z,96472.47
2023-03-06T12:46:48.074Z,96466.53
2023-03-06T12:49:32.063Z,96465.22
2023-03-06T12:52:06.240Z,96464.91
2023-03-06T12:54:38.902Z,96473.34
2023-03-06T12:57:09.601Z,96468.72
2023-03-06T12:59:43.997Z,96462.28
2023-03-06T13:02:59.853Z,96462.63
2023-03-06T13:05:53.105Z,96460.84
2023-03-06T13:09:08.879Z,96460.84
2023-03-06T13:12:26.958Z,96457.38
2023-03-06T13:14:58.842Z,96449.13
2023-03-06T13:17:36.911Z,96454.75
2023-03-06T13:20:37.413Z,96451.63
2023-03-06T13:23:49.453Z,96454.44
2023-03-06T13:27:02.797Z,96439.44
2023-03-06T13:30:23.771Z,96441.59
2023-03-06T13:32:53.848Z,96444.06
2023-03-06T13:35:53.719Z,96437.31
2023-03-06T13:38:53.498Z,96436.50
2023-03-06T13:41:54.538Z,96430.41
2023-03-06T13:44:42.449Z,96424.31
2023-03-06T13:47:59.131Z,96429.09
2023-03-06T13:50:38.227Z,96423.00
2023-03-06T13:53:55.323Z,96422.19
2023-03-06T13:57:10.169Z,96419.91
2023-03-06T14:00:29.478Z,96423.00
2023-03-06T14:03:47.641Z,96421.19
2023-03-06T14:06:52.995Z,96425.47
2023-03-06T14:09:28.615Z,96417.19
2023-03-06T14:12:03.249Z,96418.66
2023-03-06T14:14:42.707Z,96413.81
2023-03-06T14:17:21.838Z,96416.09
2023-03-06T14:19:51.347Z,96414.91
2023-03-06T14:22:24.947Z,96407.66
2023-03-06T14:24:58.624Z,96409.44
2023-03-06T14:27:49.203Z,96404.00
2023-03-06T14:30:23.109Z,96400.34
2023-03-06T14:32:55.128Z,96403.81
2023-03-06T14:35:28.767Z,96408.44
2023-03-06T14:38:00.801Z,96409.78
2023-03-06T14:40:33.380Z,96408.00
2023-03-06T14:43:21.857Z,96408.84
2023-03-06T14:45:56.798Z,96412.81
2023-03-06T14:48:27.402Z,96411.00
2023-03-06T14:50:57.698Z,96412.69
2023-03-06T14:53:29.705Z,96412.84
2023-03-06T14:56:01.360Z,96411.69
2023-03-06T14:58:36.539Z,96411.69
2023-03-06T15:01:08.642Z,96412.19
2023-03-06T15:03:44.310Z,96407.91
2023-03-06T15:06:18.577Z,96416.19
2023-03-06T15:08:50.174Z,96413.06
2023-03-06T15:11:18.506Z,96417.34
2023-03-06T15:14:02.878Z,96414.03
2023-03-06T15:16:32.584Z,96410.41
2023-03-06T15:19:03.142Z,96422.13
2023-03-06T15:21:39.148Z,96419.31
2023-03-06T15:24:33.897Z,96415.88
2023-03-06T15:27:07.178Z,96419.38
2023-03-06T15:29:39.944Z,96419.03
2023-03-06T15:32:27.938Z,96413.25
2023-03-06T15:35:38.418Z,96421.22
2023-03-06T15:40:59.069Z,96418.06
2023-03-06T15:43:28.999Z,96431.44
2023-03-06T15:46:02.122Z,96425.50
2023-03-06T15:48:30.462Z,96428.13
2023-03-06T15:50:58.864Z,96434.88
2023-03-06T15:53:27.221Z,96442.16
2023-03-06T15:55:55.669Z,96457.66
2023-03-06T15:58:26.952Z,96450.38
2023-03-06T16:00:55.295Z,96461.59
2023-03-06T16:03:25.011Z,96457.47
2023-03-06T16:05:53.261Z,96456.97
2023-03-06T16:08:21.552Z,96460.28
2023-03-06T16:10:51.396Z,96460.44
2023-03-06T16:13:27.426Z,96464.03
2023-03-06T16:15:56.157Z,96467.97
2023-03-06T16:18:25.862Z,96467.97
2023-03-06T16:20:54.091Z,96465.63
2023-03-06T16:23:22.660Z,96465.13
2023-03-06T16:25:51.119Z,96476.50
2023-03-06T16:28:19.917Z,96469.88
2023-03-06T16:30:48.230Z,96465.25
2023-03-06T16:33:16.528Z,96467.22
2023-03-06T16:35:47.268Z,96470.34
2023-03-06T16:38:16.722Z,96457.47
2023-03-06T16:40:45.162Z,96466.00
2023-03-06T16:43:16.152Z,96461.41
2023-03-06T16:45:44.876Z,96476.41
2023-03-06T16:48:17.800Z,96477.72
2023-03-06T16:50:47.568Z,96471.59
2023-03-06T16:53:16.461Z,96469.97
2023-03-06T16:55:44.747Z,96469.97
2023-03-06T16:58:13.023Z,96474.41
2023-03-06T17:00:41.445Z,96476.19
2023-03-06T17:03:09.778Z,96475.41
2023-03-06T17:05:39.308Z,96471.09
2023-03-06T17:08:09.003Z,96470.44
2023-03-06T17:10:37.294Z,96474.03
2023-03-06T17:13:07.336Z,96470.59
2023-03-06T17:15:35.840Z,96468.91
2023-03-06T17:18:04.517Z,96465.47
2023-03-06T17:20:32.835Z,96462.63
2023-03-06T17:23:01.146Z,96469.06
2023-03-06T17:25:30.791Z,96475.28
2023-03-06T17:27:59.054Z,96484.19
2023-03-06T17:30:27.342Z,96482.53
2023-03-06T17:32:57.013Z,96476.59
2023-03-06T17:35:25.355Z,96484.19
2023-03-06T17:37:53.640Z,96484.19
2023-03-06T17:40:21.957Z,96482.53
2023-03-06T17:42:51.717Z,96486.81
2023-03-06T17:45:19.959Z,96491.25
2023-03-06T17:47:49.233Z,96492.94
2023-03-06T17:50:17.861Z,96495.72
2023-03-06T17:52:46.147Z,96501.00
2023-03-06T17:55:14.436Z,96495.72
2023-03-06T17:57:42.719Z,96497.53
2023-03-06T18:00:13.972Z,96495.88
2023-03-06T18:02:42.240Z,96500.47
2023-03-06T18:05:11.329Z,96499.63
2023-03-06T18:07:39.656Z,96500.63
2023-03-06T18:10:09.221Z,96504.25
2023-03-06T18:12:37.488Z,96508.84
2023-03-06T18:15:06.779Z,96504.56
2023-03-06T18:17:36.396Z,96508.19
2023-03-06T18:20:05.021Z,96503.88
2023-03-06T18:22:33.365Z,96510.16
2023-03-06T18:25:01.636Z,96509.47
2023-03-06T18:27:29.948Z,96505.50
2023-03-06T18:29:59.065Z,96514.25
2023-03-06T18:32:27.381Z,96519.66
2023-03-06T18:34:56.975Z,96513.88
2023-03-06T18:37:25.287Z,96519.28
2023-03-06T18:39:54.107Z,96519.44
2023-03-06T18:42:22.417Z,96511.66
2023-03-06T18:44:50.674Z,96512.66
2023-03-06T18:47:18.946Z,96516.41
2023-03-06T18:49:47.185Z,96514.75
2023-03-06T18:52:16.830Z,96518.38
2023-03-06T18:54:45.721Z,96521.97
2023-03-06T18:57:13.972Z,96527.56
2023-03-06T18:59:42.199Z,96525.75
2023-03-06T19:02:12.300Z,96524.13
2023-03-06T19:04:40.585Z,96526.06
2023-03-06T19:07:08.901Z,96526.91
2023-03-06T19:09:38.579Z,96521.94
2023-03-06T19:12:07.854Z,96529.00
2023-03-06T19:14:36.369Z,96530.81
2023-03-06T19:17:04.708Z,96543.16
2023-03-06T19:19:33.347Z,96536.22
2023-03-06T19:22:02.101Z,96532.09
2023-03-06T19:24:30.460Z,96526.97
2023-03-06T19:27:00.136Z,96529.06
2023-03-06T19:29:28.525Z,96524.78
2023-03-06T19:31:58.901Z,96530.22
2023-03-06T19:34:27.239Z,96529.41
2023-03-06T19:36:55.478Z,96540.09
2023-03-06T19:39:24.400Z,96534.84
2023-03-06T19:41:53.461Z,96535.78
2023-03-06T19:44:23.288Z,96536.78
2023-03-06T19:46:51.570Z,96536.09
2023-03-06T19:49:22.241Z,96529.88
2023-03-06T19:51:50.539Z,96530.81
2023-03-06T19:54:23.327Z,96537.91
2023-03-06T19:56:51.838Z,96530.97
2023-03-06T19:59:20.174Z,96536.09
2023-03-06T20:01:49.818Z,96536.25
2023-03-06T20:04:18.161Z,96531.13
2023-03-06T20:06:46.767Z,96524.22
2023-03-06T20:09:15.078Z,96535.75
2023-03-06T20:11:43.774Z,96534.06
2023-03-06T20:14:15.387Z,96539.31
2023-03-06T20:16:43.686Z,96542.13
2023-03-06T20:19:13.583Z,96541.31
2023-03-06T20:21:41.895Z,96544.09
2023-03-06T20:24:16.665Z,96545.88
2023-03-06T20:26:45.578Z,96536.34
2023-03-06T20:29:14.308Z,96533.84
2023-03-06T20:31:42.538Z,96534.81
2023-03-06T20:34:16.719Z,96539.44
2023-03-06T20:36:46.122Z,96530.69
2023-03-06T20:39:16.820Z,96534.31
2023-03-06T20:41:46.471Z,96535.25
2023-03-06T20:44:17.963Z,96531.81
2023-03-06T20:46:46.593Z,96529.34
2023-03-06T20:49:16.432Z,96533.78
2023-03-06T20:51:45.239Z,96528.66
2023-03-06T20:54:16.888Z,96527.00
2023-03-06T20:56:48.996Z,96516.78
2023-03-06T20:59:17.634Z,96530.75
2023-03-06T21:01:47.971Z,96532.56
2023-03-06T21:04:17.903Z,96540.78
2023-03-06T21:06:47.379Z,96533.69
2023-03-06T21:09:17.396Z,96525.94
2023-03-06T21:11:46.602Z,96519.16
2023-03-06T21:14:15.578Z,96517.13
2023-03-06T21:16:44.381Z,96528.66
2023-03-06T21:19:13.108Z,96519.41
2023-03-06T21:21:42.945Z,96511.94
2023-03-06T21:24:11.398Z,96494.78
2023-03-06T21:26:39.818Z,96495.38
2023-03-06T21:29:08.200Z,96503.88
2023-03-06T21:31:36.630Z,96522.44
2023-03-06T21:34:06.311Z,96524.41
2023-03-06T21:36:35.068Z,96514.03
2023-03-06T21:39:06.841Z,96520.38
2023-03-06T21:41:35.877Z,96516.25
2023-03-06T21:44:06.725Z,96525.00
2023-03-06T21:46:35.499Z,96523.31
2023-03-06T21:49:05.018Z,96517.91
2023-03-06T21:51:33.664Z,96524.16
2023-03-06T21:54:02.157Z,96529.28
2023-03-06T21:56:33.401Z,96510.16
2023-03-06T21:59:02.317Z,96512.94
2023-03-06T22:01:31.240Z,96509.94
2023-03-06T22:04:00.119Z,96511.19
2023-03-06T22:06:30.562Z,96500.66
2023-03-06T22:09:00.855Z,96507.59
2023-03-06T22:11:34.211Z,96505.25
2023-03-06T22:14:02.677Z,96504.44
2023-03-06T22:16:31.095Z,96502.78
2023-03-06T22:18:59.968Z,96502.78
2023-03-06T22:21:28.502Z,96507.06
2023-03-06T22:23:58.775Z,96503.78
2023-03-06T22:26:27.824Z,96506.91
2023-03-06T22:28:57.641Z,96505.94
2023-03-06T22:31:28.510Z,96503.28
2023-03-06T22:33:59.106Z,96508.41
2023-03-06T22:36:30.159Z,96497.88
2023-03-06T22:39:01.200Z,96497.88
2023-03-06T22:41:30.412Z,96491.81
2023-03-06T22:44:02.246Z,96485.56
2023-03-06T22:46:31.384Z,96487.38
2023-03-06T22:49:00.991Z,96479.47
2023-03-06T22:51:30.466Z,96486.56
2023-03-06T22:53:59.150Z,96479.63
2023-03-06T22:56:27.672Z,96486.84
2023-03-06T22:58:57.566Z,96478.13
2023-03-06T23:01:29.670Z,96482.88
2023-03-06T23:04:00.247Z,96476.91
2023-03-06T23:06:31.466Z,96483.16
2023-03-06T23:09:02.386Z,96477.34
2023-03-06T23:11:31.532Z,96468.63
2023-03-06T23:14:00.128Z,96479.28
2023-03-06T23:16:29.785Z,96468.94
2023-03-06T23:18:58.101Z,96463.00
2023-03-06T23:21:26.498Z,96468.56
2023-03-06T23:23:55.621Z,96469.66
2023-03-06T23:26:27.353Z,96462.59
2023-03-06T23:28:56.637Z,96456.66
2023-03-06T23:31:28.658Z,96461.09
2023-03-06T23:34:01.879Z,96467.31
2023-03-06T23:36:31.482Z,96464.03
2023-03-06T23:39:00.069Z,96465.81
2023-03-06T23:41:28.616Z,96456.13
2023-03-06T23:43:56.948Z,96462.19
2023-03-06T23:46:25.360Z,96456.28
2023-03-06T23:48:53.814Z,96464.19
2023-03-06T23:51:24.224Z,96449.34
2023-03-06T23:53:57.322Z,96463.34
2023-03-06T23:56:27.188Z,96459.72
2023-03-06T23:58:56.190Z,96453.66
